sensor_id;sensor_type;location;lat;lon;timestamp;pressure;altitude;pressure_sealevel;temperature;humidity
22649;BME280;11491;41.942;24.220;2022-09-09T00:02:08;90335.25;;;13.10;89.17
22649;BME280;11491;41.942;24.220;2022-09-09T00:04:41;90331.97;;;13.01;89.53
22649;BME280;11491;41.942;24.220;2022-09-09T00:07:15;90326.28;;;12.87;90.26
22649;BME280;11491;41.942;24.220;2022-09-09T00:09:49;90329.91;;;12.79;90.96
22649;BME280;11491;41.942;24.220;2022-09-09T00:12:24;90317.16;;;12.91;89.57
22649;BME280;11491;41.942;24.220;2022-09-09T00:14:55;90323.81;;;12.82;89.17
22649;BME280;11491;41.942;24.220;2022-09-09T00:17:33;90326.28;;;12.87;88.52
22649;BME280;11491;41.942;24.220;2022-09-09T00:20:09;90323.81;;;12.82;88.84
22649;BME280;11491;41.942;24.220;2022-09-09T00:22:43;90320.03;;;12.83;89.68
22649;BME280;11491;41.942;24.220;2022-09-09T00:25:16;90325.75;;;12.65;90.13
22649;BME280;11491;41.942;24.220;2022-09-09T00:27:48;90330.34;;;12.65;90.88
22649;BME280;11491;41.942;24.220;2022-09-09T00:30:17;90321.41;;;12.77;90.19
22649;BME280;11491;41.942;24.220;2022-09-09T00:32:46;90336.72;;;12.76;90.83
22649;BME280;11491;41.942;24.220;2022-09-09T00:35:18;90321.94;;;12.66;91.44
22649;BME280;11491;41.942;24.220;2022-09-09T00:37:52;90318.81;;;12.64;91.42
22649;BME280;11491;41.942;24.220;2022-09-09T00:40:27;90306.53;;;12.63;90.18
22649;BME280;11491;41.942;24.220;2022-09-09T00:43:14;90310.69;;;12.77;89.18
22649;BME280;11491;41.942;24.220;2022-09-09T00:46:14;90315.84;;;12.38;91.23
22649;BME280;11491;41.942;24.220;2022-09-09T00:48:50;90320.19;;;12.58;91.06
22649;BME280;11491;41.942;24.220;2022-09-09T00:51:28;90318.47;;;12.66;89.85
22649;BME280;11491;41.942;24.220;2022-09-09T00:54:09;90318.09;;;12.36;91.24
22649;BME280;11491;41.942;24.220;2022-09-09T00:56:43;90321.47;;;12.33;91.59
22649;BME280;11491;41.942;24.220;2022-09-09T00:59:22;90318.19;;;12.39;91.69
22649;BME280;11491;41.942;24.220;2022-09-09T01:01:51;90273.88;;;11.85;92.78
22649;BME280;11491;41.942;24.220;2022-09-09T01:04:25;90313.56;;;12.24;92.84
22649;BME280;11491;41.942;24.220;2022-09-09T01:07:01;90322.06;;;12.42;91.11
22649;BME280;11491;41.942;24.220;2022-09-09T01:09:36;90317.41;;;12.39;91.54
22649;BME280;11491;41.942;24.220;2022-09-09T01:12:09;90328.13;;;12.39;91.40
22649;BME280;11491;41.942;24.220;2022-09-09T01:14:42;90325.06;;;12.24;92.45
22649;BME280;11491;41.942;24.220;2022-09-09T01:17:15;90310.88;;;12.24;92.20
22649;BME280;11491;41.942;24.220;2022-09-09T01:19:55;90270.28;;;11.94;92.55
22649;BME280;11491;41.942;24.220;2022-09-09T01:22:32;90318.78;;;12.33;92.10
22649;BME280;11491;41.942;24.220;2022-09-09T01:25:56;90323.28;;;12.44;90.64
22649;BME280;11491;41.942;24.220;2022-09-09T01:28:26;90332.31;;;12.52;90.08
22649;BME280;11491;41.942;24.220;2022-09-09T01:30:55;90315.78;;;12.50;89.73
22649;BME280;11491;41.942;24.220;2022-09-09T01:33:22;90318.19;;;12.39;90.32
22649;BME280;11491;41.942;24.220;2022-09-09T01:35:53;90321.28;;;12.41;89.45
22649;BME280;11491;41.942;24.220;2022-09-09T01:38:22;90310.50;;;12.38;89.33
22649;BME280;11491;41.942;24.220;2022-09-09T01:40:51;90304.25;;;12.34;90.64
22649;BME280;11491;41.942;24.220;2022-09-09T01:43:20;90304.81;;;12.11;91.98
22649;BME280;11491;41.942;24.220;2022-09-09T01:45:48;90302.13;;;12.11;92.11
22649;BME280;11491;41.942;24.220;2022-09-09T01:48:17;90292.97;;;12.12;92.10
22649;BME280;11491;41.942;24.220;2022-09-09T01:50:45;90300.94;;;12.24;91.54
22649;BME280;11491;41.942;24.220;2022-09-09T01:53:12;90303.88;;;12.19;91.57
22649;BME280;11491;41.942;24.220;2022-09-09T01:55:46;90296.72;;;12.23;90.71
22649;BME280;11491;41.942;24.220;2022-09-09T01:58:27;90308.06;;;12.33;90.83
22649;BME280;11491;41.942;24.220;2022-09-09T02:01:02;90297.94;;;12.26;91.03
22649;BME280;11491;41.942;24.220;2022-09-09T02:03:32;90295.09;;;12.35;90.63
22649;BME280;11491;41.942;24.220;2022-09-09T02:06:14;90296.38;;;11.97;92.57
22649;BME280;11491;41.942;24.220;2022-09-09T02:08:46;90294.72;;;11.92;92.78
22649;BME280;11491;41.942;24.220;2022-09-09T02:11:16;90279.00;;;11.91;92.25
22649;BME280;11491;41.942;24.220;2022-09-09T02:13:46;90283.25;;;11.92;92.10
22649;BME280;11491;41.942;24.220;2022-09-09T02:16:17;90289.69;;;12.03;92.18
22649;BME280;11491;41.942;24.220;2022-09-09T02:18:48;90285.16;;;12.07;92.00
22649;BME280;11491;41.942;24.220;2022-09-09T02:21:18;90296.78;;;12.11;91.78
22649;BME280;11491;41.942;24.220;2022-09-09T02:23:46;90293.38;;;11.98;91.83
22649;BME280;11491;41.942;24.220;2022-09-09T02:26:19;90302.19;;;11.99;92.12
22649;BME280;11491;41.942;24.220;2022-09-09T02:28:51;90303.50;;;12.05;92.35
22649;BME280;11491;41.942;24.220;2022-09-09T02:31:22;90302.47;;;12.10;92.02
22649;BME280;11491;41.942;24.220;2022-09-09T02:33:53;90304.47;;;12.13;91.34
22649;BME280;11491;41.942;24.220;2022-09-09T02:36:23;90296.84;;;12.15;91.42
22649;BME280;11491;41.942;24.220;2022-09-09T02:38:51;90303.88;;;12.19;91.04
22649;BME280;11491;41.942;24.220;2022-09-09T02:41:20;90296.53;;;12.16;91.09
22649;BME280;11491;41.942;24.220;2022-09-09T02:43:50;90299.91;;;12.13;90.89
22649;BME280;11491;41.942;24.220;2022-09-09T02:46:48;90298.25;;;12.09;90.85
22649;BME280;11491;41.942;24.220;2022-09-09T02:49:21;90291.84;;;12.13;90.22
22649;BME280;11491;41.942;24.220;2022-09-09T02:51:51;90294.72;;;12.20;90.17
22649;BME280;11491;41.942;24.220;2022-09-09T02:54:27;90300.59;;;12.26;89.01
22649;BME280;11491;41.942;24.220;2022-09-09T02:57:00;90288.16;;;12.18;88.84
22649;BME280;11491;41.942;24.220;2022-09-09T02:59:30;90293.25;;;11.95;89.58
22649;BME280;11491;41.942;24.220;2022-09-09T03:01:57;90293.03;;;12.00;90.68
22649;BME280;11491;41.942;24.220;2022-09-09T03:04:24;90289.03;;;11.94;91.42
22649;BME280;11491;41.942;24.220;2022-09-09T03:06:51;90283.44;;;11.99;91.55
22649;BME280;11491;41.942;24.220;2022-09-09T03:09:18;90294.94;;;11.99;91.65
22649;BME280;11491;41.942;24.220;2022-09-09T03:11:44;90296.66;;;11.79;92.62
22649;BME280;11491;41.942;24.220;2022-09-09T03:14:11;90289.94;;;11.85;91.74
22649;BME280;11491;41.942;24.220;2022-09-09T03:16:39;90305.41;;;11.64;92.20
22649;BME280;11491;41.942;24.220;2022-09-09T03:19:07;90301.75;;;11.56;93.05
22649;BME280;11491;41.942;24.220;2022-09-09T03:21:34;90297.81;;;11.66;92.97
22649;BME280;11491;41.942;24.220;2022-09-09T03:24:01;90304.94;;;11.74;93.06
22649;BME280;11491;41.942;24.220;2022-09-09T03:26:29;90291.97;;;11.76;92.63
22649;BME280;11491;41.942;24.220;2022-09-09T03:28:57;90287.59;;;11.84;91.99
22649;BME280;11491;41.942;24.220;2022-09-09T03:31:26;90296.88;;;11.87;91.43
22649;BME280;11491;41.942;24.220;2022-09-09T03:33:57;90296.41;;;11.84;91.90
22649;BME280;11491;41.942;24.220;2022-09-09T03:36:24;90305.34;;;11.89;90.74
22649;BME280;11491;41.942;24.220;2022-09-09T03:38:51;90293.72;;;11.84;91.04
22649;BME280;11491;41.942;24.220;2022-09-09T03:41:19;90294.53;;;11.85;91.41
22649;BME280;11491;41.942;24.220;2022-09-09T03:43:49;90283.69;;;11.81;90.81
22649;BME280;11491;41.942;24.220;2022-09-09T03:46:15;90288.59;;;11.92;89.68
22649;BME280;11491;41.942;24.220;2022-09-09T03:48:42;90287.50;;;11.80;90.19
22649;BME280;11491;41.942;24.220;2022-09-09T03:51:10;90289.13;;;11.57;90.49
22649;BME280;11491;41.942;24.220;2022-09-09T03:53:37;90290.72;;;11.58;91.23
22649;BME280;11491;41.942;24.220;2022-09-09T03:56:05;90298.16;;;11.24;92.88
22649;BME280;11491;41.942;24.220;2022-09-09T03:58:33;90279.19;;;11.17;94.20
22649;BME280;11491;41.942;24.220;2022-09-09T04:01:02;90289.97;;;11.33;94.13
22649;BME280;11491;41.942;24.220;2022-09-09T04:03:29;90276.91;;;11.43;93.34
22649;BME280;11491;41.942;24.220;2022-09-09T04:05:58;90286.00;;;11.55;93.45
22649;BME280;11491;41.942;24.220;2022-09-09T04:08:30;90282.91;;;11.53;93.83
22649;BME280;11491;41.942;24.220;2022-09-09T04:10:58;90274.66;;;11.58;93.46
22649;BME280;11491;41.942;24.220;2022-09-09T04:13:27;90280.19;;;11.65;93.08
22649;BME280;11491;41.942;24.220;2022-09-09T04:15:55;90280.19;;;11.65;93.56
22649;BME280;11491;41.942;24.220;2022-09-09T04:18:23;90280.38;;;11.72;92.93
22649;BME280;11491;41.942;24.220;2022-09-09T04:20:51;90279.53;;;11.68;93.06
22649;BME280;11491;41.942;24.220;2022-09-09T04:23:19;90282.66;;;11.70;92.79
22649;BME280;11491;41.942;24.220;2022-09-09T04:25:48;90296.41;;;11.84;91.84
22649;BME280;11491;41.942;24.220;2022-09-09T04:28:17;90288.63;;;11.79;92.03
22649;BME280;11491;41.942;24.220;2022-09-09T04:30:44;90288.63;;;11.79;92.02
22649;BME280;11491;41.942;24.220;2022-09-09T04:33:12;90283.69;;;11.81;92.23
22649;BME280;11491;41.942;24.220;2022-09-09T04:35:44;90293.81;;;11.60;93.00
22649;BME280;11491;41.942;24.220;2022-09-09T04:38:11;90287.31;;;11.73;91.73
22649;BME280;11491;41.942;24.220;2022-09-09T04:40:38;90302.78;;;11.80;91.72
22649;BME280;11491;41.942;24.220;2022-09-09T04:43:09;90292.19;;;11.83;91.58
22649;BME280;11491;41.942;24.220;2022-09-09T04:45:36;90303.13;;;11.91;91.99
22649;BME280;11491;41.942;24.220;2022-09-09T04:48:03;90280.56;;;11.92;92.36
22649;BME280;11491;41.942;24.220;2022-09-09T04:50:30;90305.59;;;12.12;91.97
22649;BME280;11491;41.942;24.220;2022-09-09T04:52:59;90299.41;;;12.23;91.91
22649;BME280;11491;41.942;24.220;2022-09-09T04:55:26;90297.84;;;12.38;91.27
22649;BME280;11491;41.942;24.220;2022-09-09T04:57:53;90298.13;;;12.49;90.41
22649;BME280;11491;41.942;24.220;2022-09-09T05:00:21;90300.72;;;12.45;91.28
22649;BME280;11491;41.942;24.220;2022-09-09T05:02:48;90300.66;;;12.58;90.87
22649;BME280;11491;41.942;24.220;2022-09-09T05:05:15;90293.44;;;12.62;91.71
22649;BME280;11491;41.942;24.220;2022-09-09T05:07:41;90291.06;;;12.73;92.29
22649;BME280;11491;41.942;24.220;2022-09-09T05:10:09;90290.78;;;12.78;92.72
22649;BME280;11491;41.942;24.220;2022-09-09T05:12:36;90299.44;;;12.87;91.23
22649;BME280;11491;41.942;24.220;2022-09-09T05:15:03;90293.22;;;12.83;91.10
22649;BME280;11491;41.942;24.220;2022-09-09T05:17:31;90289.50;;;12.87;92.07
22649;BME280;11491;41.942;24.220;2022-09-09T05:19:59;90292.16;;;13.03;92.82
22649;BME280;11491;41.942;24.220;2022-09-09T05:22:25;90282.44;;;13.14;92.70
22649;BME280;11491;41.942;24.220;2022-09-09T05:24:52;90274.72;;;13.29;93.36
22649;BME280;11491;41.942;24.220;2022-09-09T05:27:19;90287.75;;;13.46;94.04
22649;BME280;11491;41.942;24.220;2022-09-09T05:29:46;90281.91;;;13.60;93.43
22649;BME280;11491;41.942;24.220;2022-09-09T05:32:13;90288.34;;;13.75;93.56
22649;BME280;11491;41.942;24.220;2022-09-09T05:34:42;90256.97;;;13.79;92.89
22649;BME280;11491;41.942;24.220;2022-09-09T05:37:08;90299.25;;;14.21;91.90
22649;BME280;11491;41.942;24.220;2022-09-09T05:39:35;90286.81;;;14.36;92.47
22649;BME280;11491;41.942;24.220;2022-09-09T05:42:03;90284.97;;;14.59;91.48
22649;BME280;11491;41.942;24.220;2022-09-09T05:44:30;90289.53;;;14.78;90.25
22649;BME280;11491;41.942;24.220;2022-09-09T05:46:57;90290.59;;;14.97;90.10
22649;BME280;11491;41.942;24.220;2022-09-09T05:49:24;90288.56;;;15.13;89.50
22649;BME280;11491;41.942;24.220;2022-09-09T05:51:52;90288.03;;;15.31;88.21
22649;BME280;11491;41.942;24.220;2022-09-09T05:54:19;90282.75;;;15.38;88.31
22649;BME280;11491;41.942;24.220;2022-09-09T05:56:46;90269.16;;;15.57;85.80
22649;BME280;11491;41.942;24.220;2022-09-09T05:59:15;90270.84;;;15.69;85.49
22649;BME280;11491;41.942;24.220;2022-09-09T06:01:41;90262.53;;;15.78;85.22
22649;BME280;11491;41.942;24.220;2022-09-09T06:04:08;90264.59;;;15.88;84.63
22649;BME280;11491;41.942;24.220;2022-09-09T06:06:36;90258.22;;;16.03;83.97
22649;BME280;11491;41.942;24.220;2022-09-09T06:09:07;90253.00;;;16.18;83.93
22649;BME280;11491;41.942;24.220;2022-09-09T06:11:37;90259.31;;;16.32;84.38
22649;BME280;11491;41.942;24.220;2022-09-09T06:14:04;90237.09;;;16.46;84.23
22649;BME280;11491;41.942;24.220;2022-09-09T06:16:32;90257.44;;;16.77;83.92
22649;BME280;11491;41.942;24.220;2022-09-09T06:19:00;90237.56;;;16.96;83.47
22649;BME280;11491;41.942;24.220;2022-09-09T06:21:29;90246.25;;;17.20;82.50
22649;BME280;11491;41.942;24.220;2022-09-09T06:23:56;90251.03;;;17.44;81.33
22649;BME280;11491;41.942;24.220;2022-09-09T06:26:26;90244.19;;;17.61;81.02
22649;BME280;11491;41.942;24.220;2022-09-09T06:28:54;90245.03;;;17.76;80.68
22649;BME280;11491;41.942;24.220;2022-09-09T06:31:24;90239.63;;;17.76;79.97
22649;BME280;11491;41.942;24.220;2022-09-09T06:33:52;90241.28;;;17.95;79.76
22649;BME280;11491;41.942;24.220;2022-09-09T06:36:22;90239.00;;;18.08;78.08
22649;BME280;11491;41.942;24.220;2022-09-09T06:38:49;90250.31;;;18.35;78.32
22649;BME280;11491;41.942;24.220;2022-09-09T06:41:18;90235.66;;;18.47;78.28
22649;BME280;11491;41.942;24.220;2022-09-09T06:43:47;90265.53;;;18.83;77.47
22649;BME280;11491;41.942;24.220;2022-09-09T06:46:15;90259.38;;;19.07;76.31
22649;BME280;11491;41.942;24.220;2022-09-09T06:48:43;90259.38;;;19.32;76.12
22649;BME280;11491;41.942;24.220;2022-09-09T06:51:12;90256.66;;;19.54;75.99
22649;BME280;11491;41.942;24.220;2022-09-09T06:53:41;90254.72;;;19.76;74.20
22649;BME280;11491;41.942;24.220;2022-09-09T06:56:19;90244.56;;;20.01;74.23
22649;BME280;11491;41.942;24.220;2022-09-09T06:58:49;90243.69;;;20.26;72.53
22649;BME280;11491;41.942;24.220;2022-09-09T07:01:18;90247.09;;;20.55;72.25
22649;BME280;11491;41.942;24.220;2022-09-09T07:03:46;90251.56;;;20.83;70.70
22649;BME280;11491;41.942;24.220;2022-09-09T07:06:17;90241.47;;;20.88;70.18
22649;BME280;11491;41.942;24.220;2022-09-09T07:08:48;90246.53;;;20.85;69.93
22649;BME280;11491;41.942;24.220;2022-09-09T07:11:15;90245.66;;;20.99;71.21
22649;BME280;11491;41.942;24.220;2022-09-09T07:13:42;90250.50;;;21.29;70.43
22649;BME280;11491;41.942;24.220;2022-09-09T07:16:11;90250.66;;;21.60;69.63
22649;BME280;11491;41.942;24.220;2022-09-09T07:18:41;90245.72;;;21.86;70.44
22649;BME280;11491;41.942;24.220;2022-09-09T07:21:09;90246.78;;;21.99;69.91
22649;BME280;11491;41.942;24.220;2022-09-09T07:23:37;90247.06;;;22.08;68.78
22649;BME280;11491;41.942;24.220;2022-09-09T07:26:08;90247.41;;;22.10;67.48
22649;BME280;11491;41.942;24.220;2022-09-09T07:28:35;90246.72;;;22.06;69.01
22649;BME280;11491;41.942;24.220;2022-09-09T07:31:02;90247.78;;;22.12;69.33
22649;BME280;11491;41.942;24.220;2022-09-09T07:33:32;90249.97;;;22.28;69.02
22649;BME280;11491;41.942;24.220;2022-09-09T07:36:04;90250.69;;;22.36;68.37
22649;BME280;11491;41.942;24.220;2022-09-09T07:38:33;90251.31;;;22.47;69.32
22649;BME280;11491;41.942;24.220;2022-09-09T07:41:05;90238.00;;;22.53;67.69
22649;BME280;11491;41.942;24.220;2022-09-09T07:43:33;90238.81;;;22.53;67.14
22649;BME280;11491;41.942;24.220;2022-09-09T07:46:00;90224.72;;;22.58;66.96
22649;BME280;11491;41.942;24.220;2022-09-09T07:48:28;90227.00;;;22.64;67.60
22649;BME280;11491;41.942;24.220;2022-09-09T07:51:05;90234.78;;;22.62;65.76
22649;BME280;11491;41.942;24.220;2022-09-09T07:53:33;90229.34;;;22.62;64.83
22649;BME280;11491;41.942;24.220;2022-09-09T07:56:06;90240.75;;;22.84;66.55
22649;BME280;11491;41.942;24.220;2022-09-09T07:58:35;90234.59;;;23.07;66.93
22649;BME280;11491;41.942;24.220;2022-09-09T08:01:07;90235.56;;;23.20;66.48
22649;BME280;11491;41.942;24.220;2022-09-09T08:03:34;90211.44;;;23.18;63.77
22649;BME280;11491;41.942;24.220;2022-09-09T08:06:04;90237.47;;;23.47;65.20
22649;BME280;11491;41.942;24.220;2022-09-09T08:08:32;90231.81;;;23.61;64.92
22649;BME280;11491;41.942;24.220;2022-09-09T08:11:04;90223.84;;;23.70;62.00
22649;BME280;11491;41.942;24.220;2022-09-09T08:13:33;90233.84;;;23.80;63.34
22649;BME280;11491;41.942;24.220;2022-09-09T08:16:08;90241.97;;;23.84;62.68
22649;BME280;11491;41.942;24.220;2022-09-09T08:18:35;90225.19;;;23.85;63.04
22649;BME280;11491;41.942;24.220;2022-09-09T08:21:09;90234.94;;;24.06;62.52
22649;BME280;11491;41.942;24.220;2022-09-09T08:23:38;90228.56;;;24.13;61.31
22649;BME280;11491;41.942;24.220;2022-09-09T08:26:07;90223.53;;;24.32;63.69
22649;BME280;11491;41.942;24.220;2022-09-09T08:28:35;90218.53;;;24.50;62.20
22649;BME280;11491;41.942;24.220;2022-09-09T08:31:10;90224.38;;;24.68;62.21
22649;BME280;11491;41.942;24.220;2022-09-09T08:33:37;90220.22;;;24.80;63.14
22649;BME280;11491;41.942;24.220;2022-09-09T08:36:05;90224.78;;;24.87;62.09
22649;BME280;11491;41.942;24.220;2022-09-09T08:38:35;90221.31;;;25.03;60.76
22649;BME280;11491;41.942;24.220;2022-09-09T08:41:11;90220.94;;;25.21;61.13
22649;BME280;11491;41.942;24.220;2022-09-09T08:43:43;90185.72;;;25.23;59.96
22649;BME280;11491;41.942;24.220;2022-09-09T08:46:16;90213.78;;;25.60;58.52
22649;BME280;11491;41.942;24.220;2022-09-09T08:48:54;90225.72;;;25.98;58.73
22649;BME280;11491;41.942;24.220;2022-09-09T08:51:26;90225.50;;;26.22;56.19
22649;BME280;11491;41.942;24.220;2022-09-09T08:53:58;90220.09;;;26.48;55.71
22649;BME280;11491;41.942;24.220;2022-09-09T08:56:28;90215.94;;;26.85;54.40
22649;BME280;11491;41.942;24.220;2022-09-09T08:58:59;90212.16;;;27.08;53.11
22649;BME280;11491;41.942;24.220;2022-09-09T09:01:39;90213.81;;;27.31;52.97
22649;BME280;11491;41.942;24.220;2022-09-09T09:04:26;90209.22;;;27.54;50.64
22649;BME280;11491;41.942;24.220;2022-09-09T09:07:05;90215.91;;;27.65;48.96
22649;BME280;11491;41.942;24.220;2022-09-09T09:09:46;90218.72;;;28.00;51.97
22649;BME280;11491;41.942;24.220;2022-09-09T09:12:19;90210.53;;;28.09;51.20
22649;BME280;11491;41.942;24.220;2022-09-09T09:14:47;90211.19;;;28.13;50.95
22649;BME280;11491;41.942;24.220;2022-09-09T09:17:17;90209.56;;;28.38;50.33
22649;BME280;11491;41.942;24.220;2022-09-09T09:19:46;90209.72;;;28.56;49.80
22649;BME280;11491;41.942;24.220;2022-09-09T09:22:17;90196.03;;;28.66;49.36
22649;BME280;11491;41.942;24.220;2022-09-09T09:24:51;90208.97;;;28.78;47.71
22649;BME280;11491;41.942;24.220;2022-09-09T09:27:28;90205.50;;;28.65;49.90
22649;BME280;11491;41.942;24.220;2022-09-09T09:29:58;90199.69;;;28.63;49.54
22649;BME280;11491;41.942;24.220;2022-09-09T09:32:28;90197.56;;;28.67;50.29
22649;BME280;11491;41.942;24.220;2022-09-09T09:34:57;90187.94;;;28.93;49.44
22649;BME280;11491;41.942;24.220;2022-09-09T09:37:29;90187.19;;;29.15;49.90
22649;BME280;11491;41.942;24.220;2022-09-09T09:40:07;90192.03;;;29.11;49.70
22649;BME280;11491;41.942;24.220;2022-09-09T09:42:35;90183.47;;;29.09;48.18
22649;BME280;11491;41.942;24.220;2022-09-09T09:45:08;90176.16;;;29.15;49.63
22649;BME280;11491;41.942;24.220;2022-09-09T09:47:35;90176.13;;;29.37;49.01
22649;BME280;11491;41.942;24.220;2022-09-09T09:50:02;90180.44;;;29.47;48.30
22649;BME280;11491;41.942;24.220;2022-09-09T09:52:31;90173.25;;;29.50;48.60
22649;BME280;11491;41.942;24.220;2022-09-09T09:55:03;90163.75;;;29.51;49.89
22649;BME280;11491;41.942;24.220;2022-09-09T09:57:33;90167.84;;;29.77;47.56
22649;BME280;11491;41.942;24.220;2022-09-09T10:00:02;90165.25;;;29.92;46.95
22649;BME280;11491;41.942;24.220;2022-09-09T10:02:38;90141.81;;;29.88;47.88
22649;BME280;11491;41.942;24.220;2022-09-09T10:05:13;90171.56;;;30.11;44.33
22649;BME280;11491;41.942;24.220;2022-09-09T10:07:40;90146.41;;;29.91;44.63
22649;BME280;11491;41.942;24.220;2022-09-09T10:10:15;90156.50;;;29.75;44.89
22649;BME280;11491;41.942;24.220;2022-09-09T10:12:54;90165.06;;;29.77;45.99
22649;BME280;11491;41.942;24.220;2022-09-09T10:15:32;90137.13;;;29.48;46.82
22649;BME280;11491;41.942;24.220;2022-09-09T10:18:13;90158.25;;;29.51;47.22
22649;BME280;11491;41.942;24.220;2022-09-09T10:20:45;90163.50;;;28.95;47.96
22649;BME280;11491;41.942;24.220;2022-09-09T10:23:20;90161.13;;;28.53;48.85
22649;BME280;11491;41.942;24.220;2022-09-09T10:26:16;90158.34;;;28.09;49.70
22649;BME280;11491;41.942;24.220;2022-09-09T10:28:57;90166.47;;;27.65;52.05
22649;BME280;11491;41.942;24.220;2022-09-09T10:31:34;90171.22;;;27.14;53.61
22649;BME280;11491;41.942;24.220;2022-09-09T10:34:12;90167.00;;;26.71;53.92
22649;BME280;11491;41.942;24.220;2022-09-09T10:36:46;90170.22;;;26.11;55.99
22649;BME280;11491;41.942;24.220;2022-09-09T10:39:22;90179.69;;;25.77;57.90
22649;BME280;11491;41.942;24.220;2022-09-09T10:42:01;90183.00;;;25.39;58.42
22649;BME280;11491;41.942;24.220;2022-09-09T10:44:42;90175.06;;;25.08;59.05
22649;BME280;11491;41.942;24.220;2022-09-09T10:47:25;90178.47;;;24.96;58.66
22649;BME280;11491;41.942;24.220;2022-09-09T10:53:08;90190.34;;;24.53;60.81
22649;BME280;11491;41.942;24.220;2022-09-09T10:55:41;90186.09;;;24.52;59.50
22649;BME280;11491;41.942;24.220;2022-09-09T10:58:15;90183.66;;;24.34;59.84
22649;BME280;11491;41.942;24.220;2022-09-09T11:00:48;90157.47;;;24.17;61.07
22649;BME280;11491;41.942;24.220;2022-09-09T11:03:20;90188.38;;;24.34;60.83
22649;BME280;11491;41.942;24.220;2022-09-09T11:05:52;90195.47;;;24.87;61.00
22649;BME280;11491;41.942;24.220;2022-09-09T11:08:21;90198.19;;;25.24;58.47
22649;BME280;11491;41.942;24.220;2022-09-09T11:10:53;90199.03;;;25.21;57.17
22649;BME280;11491;41.942;24.220;2022-09-09T11:13:28;90205.38;;;25.18;57.84
22649;BME280;11491;41.942;24.220;2022-09-09T11:15:58;90198.41;;;25.13;56.83
22649;BME280;11491;41.942;24.220;2022-09-09T11:18:29;90197.66;;;25.12;57.15
22649;BME280;11491;41.942;24.220;2022-09-09T11:21:00;90188.41;;;25.06;57.62
22649;BME280;11491;41.942;24.220;2022-09-09T11:23:31;90193.19;;;25.02;60.28
22649;BME280;11491;41.942;24.220;2022-09-09T11:26:02;90190.84;;;25.21;57.51
22649;BME280;11491;41.942;24.220;2022-09-09T11:28:42;90114.19;;;24.71;58.26
22649;BME280;11491;41.942;24.220;2022-09-09T11:31:26;90180.03;;;24.97;58.90
22649;BME280;11491;41.942;24.220;2022-09-09T11:34:10;90177.00;;;24.91;60.92
22649;BME280;11491;41.942;24.220;2022-09-09T11:37:14;90172.84;;;25.03;57.91
22649;BME280;11491;41.942;24.220;2022-09-09T11:40:19;90178.69;;;24.69;57.83
22649;BME280;11491;41.942;24.220;2022-09-09T11:42:49;90174.09;;;24.46;60.08
22649;BME280;11491;41.942;24.220;2022-09-09T11:45:29;90168.53;;;24.29;61.53
22649;BME280;11491;41.942;24.220;2022-09-09T11:47:57;90161.84;;;24.14;61.45
22649;BME280;11491;41.942;24.220;2022-09-09T11:50:29;90169.59;;;23.96;61.75
22649;BME280;11491;41.942;24.220;2022-09-09T11:53:18;90175.56;;;23.67;61.63
22649;BME280;11491;41.942;24.220;2022-09-09T11:55:59;90172.63;;;23.58;62.58
22649;BME280;11491;41.942;24.220;2022-09-09T11:58:27;90169.81;;;23.61;63.63
22649;BME280;11491;41.942;24.220;2022-09-09T12:00:59;90177.47;;;23.70;63.50
22649;BME280;11491;41.942;24.220;2022-09-09T12:03:35;90171.22;;;23.93;63.13
22649;BME280;11491;41.942;24.220;2022-09-09T12:06:12;90162.72;;;24.67;62.47
22649;BME280;11491;41.942;24.220;2022-09-09T12:08:43;90161.78;;;25.43;59.23
22649;BME280;11491;41.942;24.220;2022-09-09T12:11:11;90154.78;;;26.04;57.30
22649;BME280;11491;41.942;24.220;2022-09-09T12:13:38;90157.63;;;26.42;55.92
22649;BME280;11491;41.942;24.220;2022-09-09T12:16:30;90160.56;;;27.03;53.85
22649;BME280;11491;41.942;24.220;2022-09-09T12:19:15;90152.78;;;27.40;53.00
22649;BME280;11491;41.942;24.220;2022-09-09T12:21:49;90138.41;;;27.36;51.85
22649;BME280;11491;41.942;24.220;2022-09-09T12:24:23;90154.56;;;27.21;51.92
22649;BME280;11491;41.942;24.220;2022-09-09T12:26:58;90151.03;;;26.95;53.05
22649;BME280;11491;41.942;24.220;2022-09-09T12:29:37;90142.44;;;26.67;54.00
22649;BME280;11491;41.942;24.220;2022-09-09T12:32:10;90142.25;;;26.32;54.85
22649;BME280;11491;41.942;24.220;2022-09-09T12:34:40;90140.34;;;26.16;56.44
22649;BME280;11491;41.942;24.220;2022-09-09T12:37:24;90136.69;;;26.07;56.85
22649;BME280;11491;41.942;24.220;2022-09-09T12:39:55;90131.53;;;26.51;56.30
22649;BME280;11491;41.942;24.220;2022-09-09T12:42:23;90135.56;;;27.01;53.29
22649;BME280;11491;41.942;24.220;2022-09-09T12:44:51;90136.63;;;27.42;53.01
22649;BME280;11491;41.942;24.220;2022-09-09T12:47:23;90129.16;;;27.90;53.55
22649;BME280;11491;41.942;24.220;2022-09-09T12:49:51;90122.50;;;28.35;51.21
22649;BME280;11491;41.942;24.220;2022-09-09T12:52:27;90119.94;;;28.63;48.46
22649;BME280;11491;41.942;24.220;2022-09-09T12:54:57;90116.63;;;28.68;50.52
22649;BME280;11491;41.942;24.220;2022-09-09T12:57:26;90116.78;;;29.05;47.45
22649;BME280;11491;41.942;24.220;2022-09-09T13:00:05;90124.78;;;28.81;47.12
22649;BME280;11491;41.942;24.220;2022-09-09T13:02:34;90116.44;;;28.40;48.39
22649;BME280;11491;41.942;24.220;2022-09-09T13:05:15;90121.41;;;27.76;49.96
22649;BME280;11491;41.942;24.220;2022-09-09T13:07:42;90132.03;;;27.39;49.86
22649;BME280;11491;41.942;24.220;2022-09-09T13:10:11;90126.88;;;26.64;51.50
22649;BME280;11491;41.942;24.220;2022-09-09T13:12:38;90132.06;;;26.33;54.08
22649;BME280;11491;41.942;24.220;2022-09-09T13:15:13;90131.88;;;26.11;55.11
22649;BME280;11491;41.942;24.220;2022-09-09T13:17:42;90145.31;;;25.76;54.63